Time;durP1;ratioP1;P1;durP2;ratioP2;P2;SDS_P1;SDS_P2;PMS_P1;PMS_P2;Temp;Humidity;BMP_temperature;BMP_pressure;BME280_temperature;BME280_humidity;BME280_pressure;Samples;Min_cycle;Max_cycle;Signal;HPM_P1;HPM_P2
2021/06/20 00:01:25;0.00;0.00;0.62;0.00;0.00;0.62;;;;;26.30;63.40;;;;;;2255425;61;943;-69
2021/06/20 00:03:50;0.00;0.00;0.62;0.00;0.00;0.62;;;;;26.30;63.40;;;;;;2251625;61;927;-68
2021/06/20 00:06:38;0.00;0.00;0.62;0.00;0.00;0.62;;;;;26.30;63.40;;;;;;2255861;61;2006;-67
2021/06/20 00:09:08;0.00;0.00;0.62;0.00;0.00;0.62;;;;;26.30;63.40;;;;;;2256295;61;898;-69
2021/06/20 00:11:35;0.00;0.00;0.62;0.00;0.00;0.62;;;;;26.30;63.40;;;;;;2255981;61;784;-71
2021/06/20 00:14:00;0.00;0.00;0.62;0.00;0.00;0.62;;;;;26.30;63.40;;;;;;2255971;61;939;-67
2021/06/20 00:16:26;0.00;0.00;0.62;0.00;0.00;0.62;;;;;26.30;63.40;;;;;;2252098;61;1027;-71
2021/06/20 00:18:52;0.00;0.00;0.62;0.00;0.00;0.62;;;;;26.30;63.40;;;;;;2256145;61;1030;-68
2021/06/20 00:21:19;0.00;0.00;0.62;0.00;0.00;0.62;;;;;26.30;63.40;;;;;;2256069;61;985;-73
2021/06/20 00:23:44;0.00;0.00;0.62;0.00;0.00;0.62;;;;;26.30;63.40;;;;;;2255874;61;868;-71
2021/06/20 00:26:10;0.00;0.00;0.62;0.00;0.00;0.62;;;;;26.30;63.40;;;;;;2255934;61;2006;-69
2021/06/20 00:28:36;0.00;0.00;0.62;0.00;0.00;0.62;;;;;26.30;63.30;;;;;;2255889;61;833;-73
2021/06/20 00:31:02;0.00;0.00;0.62;0.00;0.00;0.62;;;;;26.30;63.40;;;;;;2256005;61;951;-67
2021/06/20 00:33:27;230558.00;0.77;398.51;9938.00;0.03;17.84;;;;;26.30;63.40;;;;;;2255983;61;1088;-68
2021/06/20 00:35:53;56497.00;0.19;98.42;0.00;0.00;0.62;;;;;26.30;63.40;;;;;;2252231;61;870;-68
2021/06/20 00:38:19;0.00;0.00;0.62;0.00;0.00;0.62;;;;;26.30;63.30;;;;;;2255975;61;859;-68
2021/06/20 00:40:44;0.00;0.00;0.62;0.00;0.00;0.62;;;;;26.30;63.40;;;;;;2255906;61;996;-67
2021/06/20 00:43:10;46987.00;0.16;81.98;0.00;0.00;0.62;;;;;26.30;63.30;;;;;;2255682;61;1006;-68
2021/06/20 00:45:36;0.00;0.00;0.62;0.00;0.00;0.62;;;;;26.30;63.30;;;;;;2255902;61;2022;-69
2021/06/20 00:48:02;0.00;0.00;0.62;0.00;0.00;0.62;;;;;26.30;63.30;;;;;;2255899;61;903;-67
2021/06/20 00:50:27;0.00;0.00;0.62;0.00;0.00;0.62;;;;;26.30;63.30;;;;;;2255759;61;963;-71
2021/06/20 00:52:57;43530.00;0.15;76.00;0.00;0.00;0.62;;;;;26.30;63.30;;;;;;2255685;61;1033;-69
2021/06/20 00:55:23;0.00;0.00;0.62;0.00;0.00;0.62;;;;;26.30;63.30;;;;;;2255695;61;1034;-70
2021/06/20 00:57:48;0.00;0.00;0.62;0.00;0.00;0.62;;;;;26.30;63.30;;;;;;2255825;61;1002;-72
2021/06/20 01:00:14;0.00;0.00;0.62;0.00;0.00;0.62;;;;;26.30;63.30;;;;;;2251902;61;974;-67
2021/06/20 01:02:40;0.00;0.00;0.62;0.00;0.00;0.62;;;;;26.30;63.30;;;;;;2255783;61;924;-67
2021/06/20 01:05:07;0.00;0.00;0.62;0.00;0.00;0.62;;;;;26.30;63.30;;;;;;2255222;61;926;-69
2021/06/20 01:07:32;0.00;0.00;0.62;0.00;0.00;0.62;;;;;26.30;63.30;;;;;;2254873;61;1952;-69
2021/06/20 01:09:58;0.00;0.00;0.62;0.00;0.00;0.62;;;;;26.30;63.30;;;;;;2255454;61;855;-70
2021/06/20 01:12:24;21356.00;0.07;37.62;0.00;0.00;0.62;;;;;26.30;63.30;;;;;;2255429;61;918;-74
2021/06/20 01:14:50;0.00;0.00;0.62;0.00;0.00;0.62;;;;;26.30;63.30;;;;;;2255211;61;969;-68
2021/06/20 01:17:17;0.00;0.00;0.62;0.00;0.00;0.62;;;;;26.30;63.30;;;;;;2255361;61;1058;-73
2021/06/20 01:19:43;0.00;0.00;0.62;0.00;0.00;0.62;;;;;26.30;63.30;;;;;;2251841;61;906;-66
2021/06/20 01:22:13;0.00;0.00;0.62;0.00;0.00;0.62;;;;;26.30;63.30;;;;;;2255449;61;993;-70
2021/06/20 01:24:38;0.00;0.00;0.62;0.00;0.00;0.62;;;;;26.30;63.30;;;;;;2255619;61;824;-67
2021/06/20 01:27:04;0.00;0.00;0.62;0.00;0.00;0.62;;;;;26.30;63.30;;;;;;2255501;61;2070;-67
2021/06/20 01:29:33;0.00;0.00;0.62;0.00;0.00;0.62;;;;;26.30;63.30;;;;;;2255611;61;1033;-72
2021/06/20 01:32:00;0.00;0.00;0.62;0.00;0.00;0.62;;;;;26.30;63.30;;;;;;2255858;61;952;-68
2021/06/20 01:34:26;63357.00;0.21;110.28;0.00;0.00;0.62;;;;;26.30;63.20;;;;;;2255427;61;982;-70
2021/06/20 01:36:51;0.00;0.00;0.62;0.00;0.00;0.62;;;;;26.30;63.20;;;;;;2251755;61;1046;-69
2021/06/20 01:39:17;0.00;0.00;0.62;0.00;0.00;0.62;;;;;26.30;63.30;;;;;;2251602;61;840;-68
2021/06/20 01:41:42;0.00;0.00;0.62;0.00;0.00;0.62;;;;;26.30;63.20;;;;;;2255746;61;915;-72
2021/06/20 01:44:08;0.00;0.00;0.62;0.00;0.00;0.62;;;;;26.30;63.30;;;;;;2248266;61;907;-68
2021/06/20 01:46:33;0.00;0.00;0.62;0.00;0.00;0.62;;;;;26.30;63.20;;;;;;2255408;61;1943;-68
2021/06/20 01:48:59;0.00;0.00;0.62;0.00;0.00;0.62;;;;;26.30;63.30;;;;;;2255646;61;964;-68
2021/06/20 01:51:25;0.00;0.00;0.62;0.00;0.00;0.62;;;;;26.30;63.20;;;;;;2255508;61;925;-67
2021/06/20 01:53:50;76987.00;0.26;133.83;0.00;0.00;0.62;;;;;26.30;63.20;;;;;;2255440;61;836;-68
2021/06/20 01:56:16;0.00;0.00;0.62;0.00;0.00;0.62;;;;;26.30;63.20;;;;;;2251386;61;1136;-68
2021/06/20 01:58:41;0.00;0.00;0.62;0.00;0.00;0.62;;;;;26.30;63.20;;;;;;2255430;61;995;-70
2021/06/20 02:01:07;0.00;0.00;0.62;0.00;0.00;0.62;;;;;26.30;63.20;;;;;;2255475;61;1038;-67
2021/06/20 02:03:33;0.00;0.00;0.62;0.00;0.00;0.62;;;;;26.30;63.20;;;;;;2255529;61;842;-70
2021/06/20 02:05:59;17701.00;0.06;31.29;0.00;0.00;0.62;;;;;26.30;63.20;;;;;;2254443;61;2009;-69
2021/06/20 02:08:25;0.00;0.00;0.62;0.00;0.00;0.62;;;;;26.30;63.20;;;;;;2255326;61;861;-68
2021/06/20 02:10:51;0.00;0.00;0.62;0.00;0.00;0.62;;;;;26.30;63.20;;;;;;2255333;61;874;-69
2021/06/20 02:13:18;23008.00;0.08;40.48;0.00;0.00;0.62;;;;;26.30;63.20;;;;;;2255121;61;915;-71
2021/06/20 02:15:43;33195.00;0.11;58.11;0.00;0.00;0.62;;;;;26.30;63.20;;;;;;2255417;61;952;-69
2021/06/20 02:18:10;0.00;0.00;0.62;0.00;0.00;0.62;;;;;26.30;63.20;;;;;;2255211;61;1057;-70
2021/06/20 02:20:38;0.00;0.00;0.62;0.00;0.00;0.62;;;;;26.30;63.20;;;;;;2255318;61;983;-68
2021/06/20 02:23:03;0.00;0.00;0.62;0.00;0.00;0.62;;;;;26.30;63.20;;;;;;2248335;61;990;-71
2021/06/20 02:25:29;0.00;0.00;0.62;0.00;0.00;0.62;;;;;26.30;63.00;;;;;;2255218;61;1076;-69
2021/06/20 02:27:55;37377.00;0.12;65.35;0.00;0.00;0.62;;;;;26.30;63.20;;;;;;2255378;61;1960;-72
2021/06/20 02:30:21;0.00;0.00;0.62;0.00;0.00;0.62;;;;;26.30;63.00;;;;;;2255195;61;1148;-67
2021/06/20 02:32:47;23916.00;0.08;42.05;0.00;0.00;0.62;;;;;26.30;63.00;;;;;;2255338;61;1177;-70
2021/06/20 02:35:13;0.00;0.00;0.62;0.00;0.00;0.62;;;;;26.30;63.00;;;;;;2251522;61;1027;-69
2021/06/20 02:37:39;0.00;0.00;0.62;0.00;0.00;0.62;;;;;26.30;63.00;;;;;;2255141;61;946;-68
2021/06/20 02:40:06;0.00;0.00;0.62;0.00;0.00;0.62;;;;;26.30;63.00;;;;;;2255376;61;970;-70
2021/06/20 02:42:32;0.00;0.00;0.62;0.00;0.00;0.62;;;;;26.30;63.00;;;;;;2255145;61;940;-69
2021/06/20 02:44:57;0.00;0.00;0.62;0.00;0.00;0.62;;;;;26.30;63.00;;;;;;2255114;61;994;-67
2021/06/20 02:47:23;19575.00;0.07;34.53;0.00;0.00;0.62;;;;;26.30;63.00;;;;;;2255487;61;2012;-71
2021/06/20 02:49:49;0.00;0.00;0.62;0.00;0.00;0.62;;;;;26.30;63.00;;;;;;2255567;61;851;-71
2021/06/20 02:52:15;0.00;0.00;0.62;0.00;0.00;0.62;;;;;26.30;63.00;;;;;;2255337;61;980;-68
2021/06/20 02:54:49;0.00;0.00;0.62;0.00;0.00;0.62;;;;;26.30;63.00;;;;;;2248290;61;892;-69
2021/06/20 02:57:26;0.00;0.00;0.62;0.00;0.00;0.62;;;;;26.30;63.00;;;;;;2255398;61;796;-67
2021/06/20 02:59:52;192687.00;0.64;333.33;33661.00;0.11;58.92;;;;;26.30;63.00;;;;;;2255368;61;931;-70
2021/06/20 03:02:17;16800.00;0.06;29.73;0.00;0.00;0.62;;;;;26.30;63.00;;;;;;2251225;61;961;-70
2021/06/20 03:04:43;0.00;0.00;0.62;0.00;0.00;0.62;;;;;26.30;63.00;;;;;;2255256;61;1031;-71
2021/06/20 03:07:09;0.00;0.00;0.62;0.00;0.00;0.62;;;;;26.30;63.00;;;;;;2251268;61;2022;-68
2021/06/20 03:09:35;0.00;0.00;0.62;0.00;0.00;0.62;;;;;26.30;63.00;;;;;;2255420;61;966;-71
2021/06/20 03:12:05;27284.00;0.09;47.88;0.00;0.00;0.62;;;;;26.30;63.00;;;;;;2248233;61;982;-67
2021/06/20 03:14:31;0.00;0.00;0.62;0.00;0.00;0.62;;;;;26.30;63.00;;;;;;2255067;61;943;-67
2021/06/20 03:16:56;0.00;0.00;0.62;0.00;0.00;0.62;;;;;26.30;63.00;;;;;;2251150;61;1078;-72
2021/06/20 03:19:22;0.00;0.00;0.62;0.00;0.00;0.62;;;;;26.30;62.90;;;;;;2255342;61;884;-66
2021/06/20 03:21:48;78914.00;0.26;137.16;0.00;0.00;0.62;;;;;26.30;63.00;;;;;;2254943;61;825;-68
2021/06/20 03:24:14;0.00;0.00;0.62;0.00;0.00;0.62;;;;;26.30;63.00;;;;;;2255032;61;871;-67
2021/06/20 03:26:39;0.00;0.00;0.62;0.00;0.00;0.62;;;;;26.30;62.90;;;;;;2254918;61;2021;-67
2021/06/20 03:29:05;0.00;0.00;0.62;0.00;0.00;0.62;;;;;26.30;63.00;;;;;;2254830;61;941;-69
2021/06/20 03:31:31;0.00;0.00;0.62;0.00;0.00;0.62;;;;;26.30;63.00;;;;;;2254932;61;876;-67
2021/06/20 03:34:00;0.00;0.00;0.62;0.00;0.00;0.62;;;;;26.30;63.00;;;;;;2255007;61;928;-73
2021/06/20 03:36:27;0.00;0.00;0.62;0.00;0.00;0.62;;;;;26.30;63.00;;;;;;2255029;61;1072;-68
2021/06/20 03:38:53;0.00;0.00;0.62;0.00;0.00;0.62;;;;;26.30;63.00;;;;;;2254856;61;910;-67
2021/06/20 03:41:18;0.00;0.00;0.62;0.00;0.00;0.62;;;;;26.30;62.90;;;;;;2255075;61;1045;-74
2021/06/20 03:43:44;0.00;0.00;0.62;0.00;0.00;0.62;;;;;26.30;62.90;;;;;;2255010;61;1072;-67
2021/06/20 03:46:10;0.00;0.00;0.62;0.00;0.00;0.62;;;;;26.30;62.90;;;;;;2254869;61;2017;-69
2021/06/20 03:48:37;0.00;0.00;0.62;0.00;0.00;0.62;;;;;26.30;62.90;;;;;;2251266;61;948;-67
2021/06/20 03:51:03;0.00;0.00;0.62;0.00;0.00;0.62;;;;;26.30;62.90;;;;;;2251196;61;923;-70
2021/06/20 03:53:28;0.00;0.00;0.62;0.00;0.00;0.62;;;;;26.30;62.90;;;;;;2255044;61;843;-69
2021/06/20 03:55:56;67148.00;0.22;116.83;0.00;0.00;0.62;;;;;26.30;62.90;;;;;;2255180;61;933;-66
2021/06/20 03:58:21;0.00;0.00;0.62;0.00;0.00;0.62;;;;;26.30;62.90;;;;;;2254930;61;987;-69
2021/06/20 04:00:47;0.00;0.00;0.62;0.00;0.00;0.62;;;;;26.30;62.90;;;;;;2251079;61;1016;-68
2021/06/20 04:03:12;0.00;0.00;0.62;0.00;0.00;0.62;;;;;26.30;62.80;;;;;;2251187;61;879;-68
2021/06/20 04:05:38;0.00;0.00;0.62;0.00;0.00;0.62;;;;;26.30;62.80;;;;;;2255024;61;1095;-66
2021/06/20 04:08:04;0.00;0.00;0.62;0.00;0.00;0.62;;;;;26.30;62.80;;;;;;2255062;61;2027;-67
2021/06/20 04:10:29;0.00;0.00;0.62;0.00;0.00;0.62;;;;;26.30;62.80;;;;;;2255107;61;1013;-67
2021/06/20 04:12:55;4104.00;0.01;7.73;0.00;0.00;0.62;;;;;26.40;62.80;;;;;;2254990;61;941;-68
2021/06/20 04:15:21;0.00;0.00;0.62;0.00;0.00;0.62;;;;;26.40;62.80;;;;;;2254866;61;911;-67
2021/06/20 04:17:46;0.00;0.00;0.62;0.00;0.00;0.62;;;;;26.40;62.70;;;;;;2254999;61;871;-69
2021/06/20 04:20:13;104196.00;0.35;180.81;0.00;0.00;0.62;;;;;26.40;62.70;;;;;;2254895;61;987;-66
2021/06/20 04:22:40;0.00;0.00;0.62;0.00;0.00;0.62;;;;;26.40;62.70;;;;;;2254751;61;1000;-69
2021/06/20 04:25:06;0.00;0.00;0.62;0.00;0.00;0.62;;;;;26.30;62.80;;;;;;2254953;61;938;-70
2021/06/20 04:27:31;0.00;0.00;0.62;0.00;0.00;0.62;;;;;26.40;62.70;;;;;;2251041;61;2014;-69
2021/06/20 04:29:57;0.00;0.00;0.62;0.00;0.00;0.62;;;;;26.30;62.70;;;;;;2254798;61;1074;-67
2021/06/20 04:32:23;0.00;0.00;0.62;0.00;0.00;0.62;;;;;26.30;62.70;;;;;;2255134;61;970;-72
2021/06/20 04:34:48;0.00;0.00;0.62;0.00;0.00;0.62;;;;;26.40;62.70;;;;;;2251203;61;948;-72
2021/06/20 04:37:14;61892.00;0.21;107.75;0.00;0.00;0.62;;;;;26.40;62.70;;;;;;2255049;61;948;-71
2021/06/20 04:39:39;0.00;0.00;0.62;0.00;0.00;0.62;;;;;26.40;62.70;;;;;;2255102;61;986;-68
2021/06/20 04:42:10;0.00;0.00;0.62;0.00;0.00;0.62;;;;;26.40;62.70;;;;;;2255034;61;1017;-68
2021/06/20 04:44:45;0.00;0.00;0.62;0.00;0.00;0.62;;;;;26.40;62.70;;;;;;2255052;61;829;-69
2021/06/20 04:47:12;0.00;0.00;0.62;0.00;0.00;0.62;;;;;26.40;62.70;;;;;;2255014;61;1943;-66
2021/06/20 04:49:38;0.00;0.00;0.62;0.00;0.00;0.62;;;;;26.40;62.70;;;;;;2254839;61;1079;-69
2021/06/20 04:52:05;74856.00;0.25;130.15;0.00;0.00;0.62;;;;;26.40;62.70;;;;;;2251857;61;1298;-68
2021/06/20 04:54:33;0.00;0.00;0.62;0.00;0.00;0.62;;;;;26.40;62.50;;;;;;2255491;61;1229;-69
2021/06/20 04:56:58;0.00;0.00;0.62;0.00;0.00;0.62;;;;;26.40;62.70;;;;;;2255568;61;1013;-67
2021/06/20 04:59:24;129937.00;0.43;225.22;56320.00;0.19;98.11;;;;;26.40;62.50;;;;;;2255474;61;1138;-74
2021/06/20 05:01:50;22386.00;0.07;39.40;0.00;0.00;0.62;;;;;26.40;62.50;;;;;;2255461;61;963;-69
2021/06/20 05:04:15;0.00;0.00;0.62;0.00;0.00;0.62;;;;;26.40;62.50;;;;;;2255536;61;956;-67
2021/06/20 05:06:41;0.00;0.00;0.62;0.00;0.00;0.62;;;;;26.40;62.50;;;;;;2255351;61;2014;-68
2021/06/20 05:09:06;0.00;0.00;0.62;0.00;0.00;0.62;;;;;26.40;62.50;;;;;;2255481;61;1046;-67
2021/06/20 05:11:32;0.00;0.00;0.62;0.00;0.00;0.62;;;;;26.40;62.50;;;;;;2255463;61;911;-69
2021/06/20 05:13:57;0.00;0.00;0.62;0.00;0.00;0.62;;;;;26.40;62.50;;;;;;2255592;61;907;-70
2021/06/20 05:16:23;0.00;0.00;0.62;0.00;0.00;0.62;;;;;26.40;62.50;;;;;;2255334;61;1020;-67
2021/06/20 05:18:49;0.00;0.00;0.62;0.00;0.00;0.62;;;;;26.40;62.50;;;;;;2251603;61;1085;-69
2021/06/20 05:21:14;28276.00;0.09;49.60;0.00;0.00;0.62;;;;;26.40;62.50;;;;;;2255581;61;899;-67
2021/06/20 05:23:40;46707.00;0.16;81.49;0.00;0.00;0.62;;;;;26.40;62.50;;;;;;2255514;61;877;-69
2021/06/20 05:26:06;0.00;0.00;0.62;0.00;0.00;0.62;;;;;26.40;62.50;;;;;;2255444;61;2010;-69
2021/06/20 05:28:31;21370.00;0.07;37.64;0.00;0.00;0.62;;;;;26.40;62.50;;;;;;2255345;61;883;-69
2021/06/20 05:30:57;0.00;0.00;0.62;0.00;0.00;0.62;;;;;26.40;62.40;;;;;;2251630;61;994;-70
2021/06/20 05:33:23;190910.00;0.64;330.28;0.00;0.00;0.62;;;;;26.40;62.40;;;;;;2255398;61;1011;-73
2021/06/20 05:35:48;0.00;0.00;0.62;0.00;0.00;0.62;;;;;26.40;62.40;;;;;;2255463;61;911;-69
2021/06/20 05:38:14;50089.00;0.17;87.34;0.00;0.00;0.62;;;;;26.40;62.40;;;;;;2255295;61;985;-66
2021/06/20 05:40:40;62357.00;0.21;108.55;0.00;0.00;0.62;;;;;26.40;62.40;;;;;;2255288;61;926;-68
2021/06/20 05:43:06;195911.00;0.65;338.88;0.00;0.00;0.62;;;;;26.50;62.40;;;;;;2255284;61;978;-71
2021/06/20 05:45:32;114145.00;0.38;197.98;13654.00;0.05;24.28;;;;;26.40;62.30;;;;;;2255546;61;871;-69
2021/06/20 05:47:57;16209.00;0.05;28.70;0.00;0.00;0.62;;;;;26.40;62.30;;;;;;2251548;61;2019;-68
2021/06/20 05:50:23;0.00;0.00;0.62;0.00;0.00;0.62;;;;;26.50;62.30;;;;;;2255408;61;997;-68
2021/06/20 05:52:49;0.00;0.00;0.62;0.00;0.00;0.62;;;;;26.50;62.30;;;;;;2255460;61;962;-70
2021/06/20 05:55:14;0.00;0.00;0.62;0.00;0.00;0.62;;;;;26.50;62.30;;;;;;2255316;61;982;-68
2021/06/20 05:57:40;0.00;0.00;0.62;0.00;0.00;0.62;;;;;26.50;62.30;;;;;;2255305;61;1007;-71
2021/06/20 06:00:07;0.00;0.00;0.62;0.00;0.00;0.62;;;;;26.50;62.30;;;;;;2255306;61;1332;-67
2021/06/20 06:02:33;78177.00;0.26;135.89;0.00;0.00;0.62;;;;;26.50;62.10;;;;;;2254955;61;920;-72
2021/06/20 06:04:58;72206.00;0.24;125.57;0.00;0.00;0.62;;;;;26.50;62.10;;;;;;2255188;61;864;-66
2021/06/20 06:07:24;0.00;0.00;0.62;0.00;0.00;0.62;;;;;26.50;62.10;;;;;;2254627;61;2014;-68
2021/06/20 06:09:49;0.00;0.00;0.62;0.00;0.00;0.62;;;;;26.50;62.10;;;;;;2255210;61;987;-72
2021/06/20 06:12:17;0.00;0.00;0.62;0.00;0.00;0.62;;;;;26.50;62.10;;;;;;2255305;61;825;-66
2021/06/20 06:14:43;0.00;0.00;0.62;0.00;0.00;0.62;;;;;26.50;62.00;;;;;;2255528;61;949;-68
2021/06/20 06:17:09;0.00;0.00;0.62;0.00;0.00;0.62;;;;;26.50;62.00;;;;;;2251247;61;972;-67
2021/06/20 06:19:34;0.00;0.00;0.62;0.00;0.00;0.62;;;;;26.50;62.00;;;;;;2255576;61;939;-72
2021/06/20 06:22:00;0.00;0.00;0.62;0.00;0.00;0.62;;;;;26.60;62.00;;;;;;2255387;61;858;-66
2021/06/20 06:24:26;8455.00;0.03;15.27;0.00;0.00;0.62;;;;;26.60;61.90;;;;;;2254458;61;1247;-69
2021/06/20 06:26:51;0.00;0.00;0.62;0.00;0.00;0.62;;;;;26.60;61.90;;;;;;2255340;61;1939;-68
2021/06/20 06:29:17;0.00;0.00;0.62;0.00;0.00;0.62;;;;;26.60;61.80;;;;;;2255322;61;995;-68
2021/06/20 06:31:42;0.00;0.00;0.62;0.00;0.00;0.62;;;;;26.60;61.80;;;;;;2255127;61;821;-69
2021/06/20 06:34:09;128907.00;0.43;223.44;0.00;0.00;0.62;;;;;26.60;61.80;;;;;;2255191;61;1024;-66
2021/06/20 06:36:34;0.00;0.00;0.62;0.00;0.00;0.62;;;;;26.60;61.80;;;;;;2255851;61;921;-67
2021/06/20 06:39:00;27238.00;0.09;47.80;0.00;0.00;0.62;;;;;26.60;61.80;;;;;;2255282;61;896;-67
2021/06/20 06:41:25;133925.00;0.45;232.10;0.00;0.00;0.62;;;;;26.70;61.80;;;;;;2255158;61;957;-66
2021/06/20 06:43:51;0.00;0.00;0.62;0.00;0.00;0.62;;;;;26.70;61.60;;;;;;2254969;61;925;-67
2021/06/20 06:46:17;0.00;0.00;0.62;0.00;0.00;0.62;;;;;26.70;61.60;;;;;;2255125;61;2004;-69
2021/06/20 06:48:42;0.00;0.00;0.62;0.00;0.00;0.62;;;;;26.70;61.60;;;;;;2255087;61;866;-72
2021/06/20 06:51:08;0.00;0.00;0.62;0.00;0.00;0.62;;;;;26.70;61.50;;;;;;2254632;61;925;-66
2021/06/20 06:53:34;42170.00;0.14;73.64;0.00;0.00;0.62;;;;;26.70;61.50;;;;;;2255527;61;899;-67
2021/06/20 06:55:59;0.00;0.00;0.62;0.00;0.00;0.62;;;;;26.70;61.50;;;;;;2255194;61;837;-66
2021/06/20 06:58:25;54176.00;0.18;94.41;0.00;0.00;0.62;;;;;26.70;61.60;;;;;;2254921;61;889;-69
2021/06/20 07:00:50;0.00;0.00;0.62;0.00;0.00;0.62;;;;;26.70;61.60;;;;;;2255018;61;946;-71
2021/06/20 07:03:16;0.00;0.00;0.62;0.00;0.00;0.62;;;;;26.70;61.60;;;;;;2255238;61;952;-70
2021/06/20 07:05:42;0.00;0.00;0.62;0.00;0.00;0.62;;;;;26.70;61.60;;;;;;2251311;61;947;-69
2021/06/20 07:08:07;4442.00;0.01;8.32;0.00;0.00;0.62;;;;;26.70;61.80;;;;;;2255011;61;2029;-69
2021/06/20 07:10:33;25667.00;0.09;45.08;0.00;0.00;0.62;;;;;26.70;61.80;;;;;;2255966;61;1004;-70
2021/06/20 07:13:00;14748.00;0.05;26.17;0.00;0.00;0.62;;;;;26.60;61.80;;;;;;2255489;61;922;-67
2021/06/20 07:15:25;0.00;0.00;0.62;0.00;0.00;0.62;;;;;26.60;61.80;;;;;;2254802;61;996;-66
2021/06/20 07:17:51;0.00;0.00;0.62;0.00;0.00;0.62;;;;;26.70;61.80;;;;;;2255013;61;1021;-69
2021/06/20 07:20:17;53956.00;0.18;94.03;0.00;0.00;0.62;;;;;26.70;61.80;;;;;;2247829;61;986;-69
2021/06/20 07:22:44;0.00;0.00;0.62;0.00;0.00;0.62;;;;;26.70;61.80;;;;;;2254881;61;965;-68
2021/06/20 07:25:11;0.00;0.00;0.62;0.00;0.00;0.62;;;;;26.70;61.80;;;;;;2255132;61;835;-67
2021/06/20 07:27:37;0.00;0.00;0.62;0.00;0.00;0.62;;;;;26.70;61.80;;;;;;2254715;61;2012;-68
2021/06/20 07:30:32;0.00;0.00;0.62;0.00;0.00;0.62;;;;;26.70;61.80;;;;;;2255145;61;907;-69
2021/06/20 07:32:58;0.00;0.00;0.62;0.00;0.00;0.62;;;;;26.70;61.80;;;;;;2254941;61;1237;-68
2021/06/20 07:35:23;0.00;0.00;0.62;0.00;0.00;0.62;;;;;26.70;61.60;;;;;;2251208;61;1023;-67
2021/06/20 07:37:49;0.00;0.00;0.62;0.00;0.00;0.62;;;;;26.70;61.60;;;;;;2251452;61;1024;-67
2021/06/20 07:40:17;99944.00;0.33;173.48;0.00;0.00;0.62;;;;;26.70;61.50;;;;;;2255021;61;1028;-71
2021/06/20 07:42:44;0.00;0.00;0.62;0.00;0.00;0.62;;;;;26.70;61.50;;;;;;2251277;61;1025;-71
2021/06/20 07:45:10;50906.00;0.17;88.75;0.00;0.00;0.62;;;;;26.70;61.50;;;;;;2255126;61;1194;-67
2021/06/20 07:47:36;0.00;0.00;0.62;0.00;0.00;0.62;;;;;26.70;61.50;;;;;;2254697;61;1935;-68
2021/06/20 07:50:04;30713.00;0.10;53.82;0.00;0.00;0.62;;;;;26.70;61.50;;;;;;2255070;61;1038;-69
2021/06/20 07:52:29;52768.00;0.18;91.97;0.00;0.00;0.62;;;;;26.70;61.60;;;;;;2255081;61;1256;-69
2021/06/20 07:54:55;14268.00;0.05;25.34;0.00;0.00;0.62;;;;;26.70;61.50;;;;;;2254880;61;1172;-70
2021/06/20 07:57:21;21186.00;0.07;37.32;0.00;0.00;0.62;;;;;26.70;61.50;;;;;;2255266;61;1481;-66
2021/06/20 07:59:47;25370.00;0.08;44.57;0.00;0.00;0.62;;;;;26.70;61.50;;;;;;2255076;61;1150;-69
2021/06/20 08:02:13;20549.00;0.07;36.22;0.00;0.00;0.62;;;;;26.70;61.60;;;;;;2251275;61;1260;-69
2021/06/20 08:04:39;0.00;0.00;0.62;0.00;0.00;0.62;;;;;26.70;61.50;;;;;;2255041;61;1230;-67
2021/06/20 08:07:05;0.00;0.00;0.62;0.00;0.00;0.62;;;;;26.70;61.50;;;;;;2254800;61;1939;-66
2021/06/20 08:09:31;0.00;0.00;0.62;0.00;0.00;0.62;;;;;26.70;61.50;;;;;;2254902;61;1029;-68
2021/06/20 08:11:57;27164.00;0.09;47.67;0.00;0.00;0.62;;;;;26.70;61.50;;;;;;2255032;61;1036;-66
2021/06/20 08:14:22;33532.00;0.11;58.70;0.00;0.00;0.62;;;;;26.70;61.50;;;;;;2254934;61;1025;-67
2021/06/20 08:16:48;0.00;0.00;0.62;0.00;0.00;0.62;;;;;26.70;61.50;;;;;;2254771;61;1199;-71
2021/06/20 08:19:14;0.00;0.00;0.62;0.00;0.00;0.62;;;;;26.70;61.50;;;;;;2255188;61;1167;-67
2021/06/20 08:21:40;0.00;0.00;0.62;0.00;0.00;0.62;;;;;26.70;61.50;;;;;;2251154;61;1165;-66
2021/06/20 08:24:06;37013.00;0.12;64.72;0.00;0.00;0.62;;;;;26.70;61.20;;;;;;2254732;61;895;-69
2021/06/20 08:26:32;0.00;0.00;0.62;0.00;0.00;0.62;;;;;26.70;61.50;;;;;;2255441;61;1943;-70
2021/06/20 08:28:57;0.00;0.00;0.62;0.00;0.00;0.62;;;;;26.70;61.20;;;;;;2255803;61;941;-68
2021/06/20 08:31:23;0.00;0.00;0.62;0.00;0.00;0.62;;;;;26.80;61.20;;;;;;2255826;61;939;-73
2021/06/20 08:33:48;81311.00;0.27;141.30;0.00;0.00;0.62;;;;;26.80;61.20;;;;;;2255622;61;932;-72
2021/06/20 08:36:14;0.00;0.00;0.62;0.00;0.00;0.62;;;;;26.80;61.20;;;;;;2255720;61;894;-67
2021/06/20 08:38:40;34049.00;0.11;59.59;0.00;0.00;0.62;;;;;26.80;61.20;;;;;;2255395;61;967;-68
2021/06/20 08:41:05;57550.00;0.19;100.24;0.00;0.00;0.62;;;;;26.80;61.20;;;;;;2255551;61;883;-66
2021/06/20 08:43:31;62345.00;0.21;108.53;0.00;0.00;0.62;;;;;26.80;61.10;;;;;;2255686;61;969;-70
2021/06/20 08:45:57;54780.00;0.18;95.45;0.00;0.00;0.62;;;;;26.90;61.10;;;;;;2255572;61;1939;-68
2021/06/20 08:48:22;0.00;0.00;0.62;0.00;0.00;0.62;;;;;26.80;61.10;;;;;;2255286;61;1030;-69
2021/06/20 08:50:49;27368.00;0.09;48.03;0.00;0.00;0.62;;;;;26.90;61.10;;;;;;2251816;61;951;-68
2021/06/20 08:53:16;0.00;0.00;0.62;0.00;0.00;0.62;;;;;26.80;61.10;;;;;;2251589;61;1821;-67
2021/06/20 08:55:45;11689.00;0.04;20.88;0.00;0.00;0.62;;;;;26.90;61.10;;;;;;2255693;61;1005;-67
2021/06/20 08:58:28;0.00;0.00;0.62;0.00;0.00;0.62;;;;;26.90;61.10;;;;;;2255535;61;1001;-69
2021/06/20 09:00:58;0.00;0.00;0.62;0.00;0.00;0.62;;;;;26.90;61.10;;;;;;2251442;61;960;-66
2021/06/20 09:03:23;83101.00;0.28;144.39;0.00;0.00;0.62;;;;;26.90;61.10;;;;;;2251709;61;1206;-69
2021/06/20 09:06:00;0.00;0.00;0.62;0.00;0.00;0.62;;;;;26.90;61.10;;;;;;2255397;61;891;-69
2021/06/20 09:08:26;21537.00;0.07;37.93;0.00;0.00;0.62;;;;;26.90;61.10;;;;;;2255529;61;980;-67
2021/06/20 09:10:52;0.00;0.00;0.62;0.00;0.00;0.62;;;;;26.90;61.10;;;;;;2255743;61;1025;-67
2021/06/20 09:13:17;36735.00;0.12;64.24;0.00;0.00;0.62;;;;;26.90;61.10;;;;;;2255343;61;998;-70
2021/06/20 09:15:43;0.00;0.00;0.62;0.00;0.00;0.62;;;;;26.90;61.10;;;;;;2255348;61;1011;-69
2021/06/20 09:18:10;0.00;0.00;0.62;0.00;0.00;0.62;;;;;26.90;61.10;;;;;;2255638;61;1333;-66
2021/06/20 09:20:41;44074.00;0.15;76.94;0.00;0.00;0.62;;;;;26.90;60.90;;;;;;2255506;61;875;-68
2021/06/20 09:23:11;52695.00;0.18;91.85;0.00;0.00;0.62;;;;;26.90;61.00;;;;;;2255866;61;885;-68
2021/06/20 09:25:38;99552.00;0.33;172.80;0.00;0.00;0.62;;;;;26.90;61.00;;;;;;2255305;61;907;-68
2021/06/20 09:28:04;0.00;0.00;0.62;0.00;0.00;0.62;;;;;26.90;61.00;;;;;;2251714;61;2034;-69
2021/06/20 09:30:30;0.00;0.00;0.62;0.00;0.00;0.62;;;;;26.90;61.00;;;;;;2255255;61;925;-69
2021/06/20 09:33:03;0.00;0.00;0.62;0.00;0.00;0.62;;;;;26.90;61.00;;;;;;2255298;61;988;-67
2021/06/20 09:35:43;0.00;0.00;0.62;0.00;0.00;0.62;;;;;26.90;60.90;;;;;;2255347;61;1057;-72
2021/06/20 09:38:10;87398.00;0.29;151.81;0.00;0.00;0.62;;;;;26.90;61.00;;;;;;2255238;61;930;-66
2021/06/20 09:40:35;0.00;0.00;0.62;0.00;0.00;0.62;;;;;26.90;61.00;;;;;;2255181;61;992;-66
2021/06/20 09:43:11;33247.00;0.11;58.20;0.00;0.00;0.62;;;;;26.90;61.00;;;;;;2255279;61;934;-72
2021/06/20 09:45:41;0.00;0.00;0.62;0.00;0.00;0.62;;;;;26.90;61.00;;;;;;2251480;61;966;-69
2021/06/20 09:48:06;0.00;0.00;0.62;0.00;0.00;0.62;;;;;26.90;60.90;;;;;;2255439;61;1961;-67
2021/06/20 09:50:36;41070.00;0.14;71.74;0.00;0.00;0.62;;;;;26.90;60.70;;;;;;2255314;61;969;-69
2021/06/20 09:53:02;0.00;0.00;0.62;0.00;0.00;0.62;;;;;27.00;60.70;;;;;;2255394;61;895;-68
2021/06/20 09:55:28;0.00;0.00;0.62;0.00;0.00;0.62;;;;;27.00;60.70;;;;;;2251679;61;926;-67
2021/06/20 09:58:01;34578.00;0.12;60.51;0.00;0.00;0.62;;;;;27.00;60.70;;;;;;2255466;61;1053;-67
2021/06/20 10:00:34;0.00;0.00;0.62;0.00;0.00;0.62;;;;;27.00;60.70;;;;;;2248606;61;957;-66
2021/06/20 10:03:00;0.00;0.00;0.62;0.00;0.00;0.62;;;;;27.00;60.70;;;;;;2248610;61;1030;-70
2021/06/20 10:05:26;104011.00;0.35;180.49;0.00;0.00;0.62;;;;;27.00;60.70;;;;;;2251615;61;996;-67
2021/06/20 10:07:52;58270.00;0.19;101.49;0.00;0.00;0.62;;;;;27.00;60.70;;;;;;2255080;61;1945;-68
2021/06/20 10:10:17;46582.00;0.16;81.27;0.00;0.00;0.62;;;;;27.00;60.60;;;;;;2255102;61;920;-67
2021/06/20 10:12:43;0.00;0.00;0.62;0.00;0.00;0.62;;;;;27.00;60.60;;;;;;2255422;61;831;-69
2021/06/20 10:15:11;42782.00;0.14;74.70;0.00;0.00;0.62;;;;;27.00;60.60;;;;;;2255366;61;1066;-67
2021/06/20 10:17:39;0.00;0.00;0.62;0.00;0.00;0.62;;;;;27.00;60.60;;;;;;2251160;61;959;-70
2021/06/20 10:20:07;22681.00;0.08;39.91;0.00;0.00;0.62;;;;;27.10;60.50;;;;;;2251295;61;935;-68
2021/06/20 10:22:37;0.00;0.00;0.62;0.00;0.00;0.62;;;;;27.10;60.50;;;;;;2251217;61;909;-69
2021/06/20 10:25:10;69050.00;0.23;120.12;0.00;0.00;0.62;;;;;27.10;60.30;;;;;;2255110;61;1034;-71
2021/06/20 10:27:38;0.00;0.00;0.62;0.00;0.00;0.62;;;;;27.10;60.30;;;;;;2251399;61;2025;-69
2021/06/20 10:30:06;0.00;0.00;0.62;0.00;0.00;0.62;;;;;27.20;60.20;;;;;;2255027;61;1013;-70